createdAt,value
2022-11-02T00:01:03.541Z,17.07
2022-11-02T00:04:10.342Z,27.45
2022-11-02T00:07:15.455Z,24.47
2022-11-02T00:10:22.348Z,25.20
2022-11-02T00:13:28.522Z,21.05
2022-11-02T00:16:35.626Z,20.02
2022-11-02T00:19:35.055Z,27.17
2022-11-02T00:22:40.787Z,21.23
2022-11-02T00:25:47.153Z,30.50
2022-11-02T00:28:53.740Z,26.73
2022-11-02T00:32:00.138Z,22.82
2022-11-02T00:35:06.171Z,18.80
2022-11-02T00:38:12.379Z,21.52
2022-11-02T00:41:19.292Z,19.20
2022-11-02T00:44:24.678Z,21.17
2022-11-02T00:47:30.480Z,22.27
2022-11-02T00:50:35.910Z,19.85
2022-11-02T00:53:42.176Z,24.35
2022-11-02T00:56:47.902Z,21.00
2022-11-02T00:59:54.475Z,24.65
2022-11-02T01:03:01.334Z,19.48
2022-11-02T01:06:06.416Z,17.37
2022-11-02T01:09:05.699Z,16.42
2022-11-02T01:12:12.423Z,17.85
2022-11-02T01:15:18.342Z,22.05
2022-11-02T01:18:25.322Z,19.02
2022-11-02T01:21:31.502Z,21.73
2022-11-02T01:24:38.609Z,21.45
2022-11-02T01:27:43.874Z,21.37
2022-11-02T01:30:50.005Z,26.62
2022-11-02T01:34:00.839Z,21.50
2022-11-02T01:37:06.092Z,19.55
2022-11-02T01:40:12.268Z,24.20
2022-11-02T01:43:42.274Z,20.88
2022-11-02T01:46:59.330Z,23.70
2022-11-02T01:50:12.499Z,20.92
2022-11-02T01:53:12.931Z,17.60
2022-11-02T01:56:19.133Z,18.92
2022-11-02T01:59:31.733Z,16.67
2022-11-02T02:02:38.997Z,22.27
2022-11-02T02:05:44.181Z,15.95
2022-11-02T02:08:52.840Z,19.90
2022-11-02T02:12:00.239Z,19.80
2022-11-02T02:15:07.173Z,21.80
2022-11-02T02:18:21.076Z,16.90
2022-11-02T02:21:58.147Z,18.92
2022-11-02T02:25:43.468Z,17.65
2022-11-02T02:29:03.305Z,20.85
2022-11-02T02:32:17.314Z,21.70
2022-11-02T02:36:04.085Z,17.35
2022-11-02T02:39:25.680Z,16.97
2022-11-02T02:42:35.563Z,23.60
2022-11-02T02:45:56.354Z,17.70
2022-11-02T02:49:02.134Z,20.95
2022-11-02T02:52:08.356Z,21.33
2022-11-02T02:55:14.532Z,22.25
2022-11-02T02:58:22.072Z,23.95
2022-11-02T03:01:29.350Z,22.37
2022-11-02T03:04:28.293Z,22.20
2022-11-02T03:07:44.690Z,22.00
2022-11-02T03:10:54.285Z,20.45
2022-11-02T03:14:12.133Z,15.75
2022-11-02T03:17:35.082Z,14.18
2022-11-02T03:21:00.329Z,18.40
2022-11-02T03:24:22.897Z,18.52
2022-11-02T03:27:47.186Z,22.35
2022-11-02T03:31:13.626Z,16.73
2022-11-02T03:34:45.334Z,16.95
2022-11-02T03:37:56.965Z,22.48
2022-11-02T03:41:04.730Z,29.50
2022-11-02T03:44:25.215Z,19.73
2022-11-02T03:47:33.225Z,22.35
2022-11-02T03:50:42.472Z,27.00
2022-11-02T03:54:20.785Z,23.10
2022-11-02T03:57:31.173Z,29.25
2022-11-02T04:00:38.874Z,27.32
2022-11-02T04:03:37.919Z,22.40
2022-11-02T04:06:38.402Z,24.82
2022-11-02T04:09:43.993Z,18.70
2022-11-02T04:13:09.023Z,18.50
2022-11-02T04:16:14.715Z,22.40
2022-11-02T04:19:37.525Z,25.40
2022-11-02T04:23:01.424Z,23.60
2022-11-02T04:26:10.555Z,22.62
2022-11-02T04:32:25.149Z,27.37
2022-11-02T04:35:31.611Z,22.95
2022-11-02T04:38:50.288Z,20.70
2022-11-02T04:42:00.678Z,18.75
2022-11-02T04:45:10.737Z,20.67
2022-11-02T04:48:20.977Z,23.25
2022-11-02T04:51:29.446Z,20.00
2022-11-02T04:54:35.667Z,23.22
2022-11-02T05:00:47.780Z,39.40
2022-11-02T05:03:55.557Z,18.05
2022-11-02T05:07:03.353Z,21.95
2022-11-02T05:10:11.505Z,25.90
2022-11-02T05:13:17.943Z,19.05
2022-11-02T05:16:26.644Z,17.75
2022-11-02T05:19:26.372Z,19.80
2022-11-02T05:22:24.992Z,21.57
2022-11-02T05:25:29.711Z,17.30
2022-11-02T05:28:35.600Z,25.00
2022-11-02T05:31:42.444Z,21.40
2022-11-02T05:34:48.144Z,23.45
2022-11-02T05:37:54.912Z,19.70
2022-11-02T05:41:11.685Z,25.70
2022-11-02T05:44:17.739Z,18.85
2022-11-02T05:47:23.877Z,16.10
2022-11-02T05:50:30.832Z,20.02
2022-11-02T05:53:29.865Z,20.05
2022-11-02T05:56:35.802Z,21.15
2022-11-02T05:59:43.876Z,20.10
2022-11-02T06:02:49.622Z,17.40
2022-11-02T06:05:55.866Z,21.27
2022-11-02T06:09:06.925Z,23.32
2022-11-02T06:12:11.438Z,21.02
2022-11-02T06:15:18.991Z,16.85
2022-11-02T06:18:25.499Z,15.90
2022-11-02T06:21:32.206Z,18.80
2022-11-02T06:24:39.577Z,19.23
2022-11-02T06:27:46.086Z,17.52
2022-11-02T06:30:52.631Z,14.40
2022-11-02T06:33:58.954Z,17.67
2022-11-02T06:37:05.538Z,17.65
2022-11-02T06:40:11.744Z,18.42
2022-11-02T06:43:19.395Z,15.18
2022-11-02T06:46:25.266Z,19.00
2022-11-02T06:49:31.463Z,20.35
2022-11-02T06:52:30.458Z,17.27
2022-11-02T06:55:16.851Z,20.52
2022-11-02T06:58:10.305Z,23.55
2022-11-02T07:01:02.936Z,20.05
2022-11-02T07:04:02.420Z,16.90
2022-11-02T07:07:08.415Z,16.55
2022-11-02T07:10:15.975Z,20.08
2022-11-02T07:13:22.259Z,19.32
2022-11-02T07:16:29.854Z,24.00
2022-11-02T07:19:36.272Z,14.28
2022-11-02T07:22:43.108Z,24.02
2022-11-02T07:25:48.330Z,23.18
2022-11-02T07:28:55.276Z,18.65
2022-11-02T07:32:04.319Z,21.40
2022-11-02T07:35:04.451Z,19.35
2022-11-02T07:41:17.383Z,17.20
2022-11-02T07:44:22.909Z,22.85
2022-11-02T07:47:28.719Z,19.67
2022-11-02T07:50:36.794Z,18.98
2022-11-02T07:53:42.703Z,23.98
2022-11-02T07:56:48.694Z,21.27
2022-11-02T07:59:55.721Z,22.35
2022-11-02T08:03:04.817Z,25.40
2022-11-02T08:06:10.860Z,18.62
2022-11-02T08:09:16.997Z,20.50
2022-11-02T08:12:22.762Z,19.55
2022-11-02T08:15:27.841Z,17.40
2022-11-02T08:18:35.653Z,24.70
2022-11-02T08:21:40.853Z,15.48
2022-11-02T08:24:46.112Z,16.00
2022-11-02T08:27:52.126Z,13.32
2022-11-02T08:30:57.463Z,19.90
2022-11-02T08:34:03.403Z,24.45
2022-11-02T08:37:10.073Z,14.38
2022-11-02T08:40:16.219Z,21.02
2022-11-02T08:43:23.944Z,13.62
2022-11-02T08:46:31.320Z,12.90
2022-11-02T08:49:37.214Z,18.52
2022-11-02T08:52:42.733Z,15.75
2022-11-02T08:55:49.667Z,14.75
2022-11-02T08:58:59.287Z,13.68
2022-11-02T09:02:05.312Z,15.00
2022-11-02T09:05:12.292Z,14.98
2022-11-02T09:11:31.677Z,17.37
2022-11-02T09:14:37.615Z,16.12
2022-11-02T09:17:44.124Z,14.07
2022-11-02T09:20:50.215Z,11.43
2022-11-02T09:23:56.742Z,11.68
2022-11-02T09:27:03.337Z,12.90
2022-11-02T09:30:10.033Z,9.73
2022-11-02T09:33:20.097Z,9.40
2022-11-02T09:36:26.675Z,9.05
2022-11-02T09:39:33.472Z,13.32
2022-11-02T09:43:09.708Z,11.08
2022-11-02T09:46:33.903Z,8.90
2022-11-02T09:49:41.698Z,9.73
2022-11-02T09:52:50.838Z,10.00
2022-11-02T09:56:01.738Z,12.95
2022-11-02T09:59:16.499Z,8.75
2022-11-02T10:02:52.384Z,10.80
2022-11-02T10:06:07.313Z,15.32
2022-11-02T10:09:34.909Z,7.80
2022-11-02T10:13:20.358Z,12.30
2022-11-02T10:16:35.778Z,15.85
2022-11-02T10:19:41.941Z,10.60
2022-11-02T10:22:51.490Z,13.03
2022-11-02T10:25:58.265Z,9.33
2022-11-02T10:29:05.065Z,7.90
2022-11-02T10:32:04.081Z,7.95
2022-11-02T10:34:59.333Z,22.02
2022-11-02T10:38:14.763Z,8.63
2022-11-02T10:41:47.540Z,12.60
2022-11-02T10:45:23.614Z,8.85
2022-11-02T10:48:53.100Z,9.88
2022-11-02T10:51:59.108Z,7.42
2022-11-02T10:55:05.486Z,7.25
2022-11-02T10:58:06.782Z,6.55
2022-11-02T11:01:03.002Z,7.00
2022-11-02T11:04:17.970Z,7.17
2022-11-02T11:07:38.473Z,15.48
2022-11-02T11:10:52.692Z,7.42
2022-11-02T11:20:17.439Z,10.25
2022-11-02T11:23:39.364Z,9.45
2022-11-02T11:26:46.411Z,9.30
2022-11-02T11:29:58.059Z,16.82
2022-11-02T11:33:04.521Z,8.38
2022-11-02T11:36:09.593Z,7.28
2022-11-02T11:39:20.935Z,5.28
2022-11-02T11:42:34.619Z,8.63
2022-11-02T11:46:08.019Z,10.10
2022-11-02T11:49:14.552Z,6.72
2022-11-02T11:52:19.937Z,8.58
2022-11-02T11:55:40.493Z,6.20
2022-11-02T11:58:50.599Z,10.58
2022-11-02T12:01:57.037Z,7.87
2022-11-02T12:05:03.857Z,8.55
2022-11-02T12:08:25.972Z,7.85
2022-11-02T12:11:43.503Z,7.70
2022-11-02T12:15:07.028Z,8.73
2022-11-02T12:18:29.847Z,7.37
2022-11-02T12:21:42.823Z,5.95
2022-11-02T12:25:07.702Z,7.85
2022-11-02T12:28:36.451Z,10.40
2022-11-02T12:31:58.112Z,13.83
2022-11-02T12:35:34.735Z,11.33
2022-11-02T12:39:09.522Z,7.55
2022-11-02T12:42:43.728Z,8.70
2022-11-02T12:46:28.079Z,15.93
2022-11-02T12:49:52.977Z,9.18
2022-11-02T12:53:15.030Z,9.00
2022-11-02T12:56:25.210Z,8.30
2022-11-02T12:59:45.295Z,8.90
2022-11-02T13:03:12.100Z,11.30
2022-11-02T13:06:22.409Z,12.58
2022-11-02T13:09:39.099Z,12.07
2022-11-02T13:12:46.772Z,10.23
2022-11-02T13:15:53.409Z,10.85
2022-11-02T13:19:07.406Z,7.50
2022-11-02T13:22:05.994Z,10.30
2022-11-02T13:24:54.848Z,10.05
2022-11-02T13:27:55.789Z,10.32
2022-11-02T13:33:36.600Z,15.72
2022-11-02T13:36:29.899Z,18.85
2022-11-02T13:39:55.680Z,12.85
2022-11-02T13:43:22.282Z,15.48
2022-11-02T13:46:38.272Z,16.40
2022-11-02T13:49:58.277Z,18.20
2022-11-02T13:56:24.505Z,25.12
2022-11-02T13:59:49.064Z,29.18
2022-11-02T14:02:56.225Z,37.17
2022-11-02T14:06:11.889Z,35.95
2022-11-02T14:09:19.429Z,16.07
2022-11-02T14:12:38.619Z,18.42
2022-11-02T14:15:51.645Z,14.25
2022-11-02T14:18:58.387Z,15.35
2022-11-02T14:22:19.806Z,20.57
2022-11-02T14:25:30.540Z,17.02
2022-11-02T14:28:49.833Z,18.02
2022-11-02T14:31:56.524Z,21.55
2022-11-02T14:35:21.683Z,17.62
2022-11-02T14:38:44.528Z,18.23
2022-11-02T14:42:03.869Z,16.35
2022-11-02T14:45:35.751Z,12.75
2022-11-02T14:48:40.387Z,13.10
2022-11-02T14:51:50.759Z,17.27
2022-11-02T14:55:36.086Z,16.15
2022-11-02T14:58:48.681Z,20.02
2022-11-02T15:02:05.752Z,21.62
2022-11-02T15:05:09.054Z,13.25
2022-11-02T15:08:35.348Z,14.38
2022-11-02T15:12:03.402Z,16.55
2022-11-02T15:18:48.912Z,18.62
2022-11-02T15:21:54.672Z,17.50
2022-11-02T15:25:00.652Z,18.37
2022-11-02T15:28:09.358Z,14.13
2022-11-02T15:31:26.063Z,13.53
2022-11-02T15:34:31.547Z,14.87
2022-11-02T15:38:03.452Z,12.88
2022-11-02T15:41:06.287Z,20.05
2022-11-02T15:44:38.868Z,18.23
2022-11-02T15:48:26.111Z,16.70
2022-11-02T15:51:39.036Z,15.30
2022-11-02T15:55:01.868Z,10.45
2022-11-02T15:58:44.992Z,17.40
2022-11-02T16:01:50.664Z,13.13
2022-11-02T16:05:01.446Z,19.30
2022-11-02T16:11:26.844Z,19.00
2022-11-02T16:14:33.064Z,26.70
2022-11-02T16:17:44.096Z,31.33
2022-11-02T16:20:50.772Z,30.45
2022-11-02T16:23:58.617Z,39.65
2022-11-02T16:27:06.091Z,40.08
2022-11-02T16:30:12.560Z,50.35
2022-11-02T16:33:19.273Z,47.27
2022-11-02T16:36:21.371Z,50.55
2022-11-02T16:39:44.016Z,52.62
2022-11-02T16:42:48.497Z,56.00
2022-11-02T16:45:54.145Z,52.35
2022-11-02T16:49:20.668Z,52.70
2022-11-02T16:52:40.860Z,81.78
2022-11-02T16:59:06.656Z,66.72
2022-11-02T17:02:14.944Z,56.77
2022-11-02T17:05:37.219Z,51.08
2022-11-02T17:08:51.519Z,42.85
2022-11-02T17:11:57.693Z,54.40
2022-11-02T17:15:04.193Z,43.52
2022-11-02T17:18:39.246Z,40.05
2022-11-02T17:21:39.217Z,49.80
2022-11-02T17:24:46.792Z,37.40
2022-11-02T17:27:52.533Z,34.90
2022-11-02T17:30:58.866Z,35.60
2022-11-02T17:34:04.657Z,39.13
2022-11-02T17:37:10.253Z,36.83
2022-11-02T17:40:17.269Z,30.12
2022-11-02T17:43:23.652Z,29.40
2022-11-02T17:46:29.431Z,27.65
2022-11-02T17:49:35.000Z,26.80
2022-11-02T17:52:42.676Z,28.85
2022-11-02T17:55:49.558Z,25.97
2022-11-02T17:58:56.381Z,20.40
2022-11-02T18:02:03.857Z,28.87
2022-11-02T18:05:08.993Z,32.05
2022-11-02T18:08:17.648Z,24.32
2022-11-02T18:11:22.096Z,28.32
2022-11-02T18:14:06.536Z,25.37
2022-11-02T18:17:00.469Z,32.55
2022-11-02T18:19:46.572Z,25.95
2022-11-02T18:22:38.756Z,23.67
2022-11-02T18:25:37.060Z,20.15
2022-11-02T18:28:43.037Z,19.85
2022-11-02T18:31:48.915Z,24.80
2022-11-02T18:34:53.995Z,25.55
2022-11-02T18:37:59.592Z,26.42
2022-11-02T18:41:05.231Z,27.70
2022-11-02T18:44:15.610Z,27.15
2022-11-02T18:47:21.322Z,28.80
2022-11-02T18:50:28.030Z,38.70
2022-11-02T18:53:34.265Z,26.75
2022-11-02T18:56:40.079Z,30.00
2022-11-02T18:59:39.297Z,30.10
2022-11-02T19:02:45.733Z,33.18
2022-11-02T19:06:09.159Z,24.67
2022-11-02T19:09:26.751Z,29.77
2022-11-02T19:12:34.576Z,26.23
2022-11-02T19:15:42.715Z,34.83
2022-11-02T19:18:41.731Z,30.12
2022-11-02T19:21:27.687Z,38.78
2022-11-02T19:24:20.151Z,38.23
2022-11-02T19:27:15.317Z,39.35
2022-11-02T19:30:22.575Z,34.08
2022-11-02T19:33:27.388Z,42.23
2022-11-02T19:36:33.230Z,31.70
2022-11-02T19:39:38.181Z,38.28
2022-11-02T19:42:44.124Z,39.60
2022-11-02T19:45:50.310Z,40.23
2022-11-02T19:48:54.786Z,45.52
2022-11-02T19:52:00.513Z,43.75
2022-11-02T19:55:06.601Z,50.28
2022-11-02T19:58:13.181Z,53.55
2022-11-02T20:01:25.074Z,48.98
2022-11-02T20:04:30.527Z,53.00
2022-11-02T20:07:36.636Z,48.87
2022-11-02T20:10:42.713Z,57.60
2022-11-02T20:13:51.088Z,59.20
2022-11-02T20:17:17.838Z,64.97
2022-11-02T20:20:06.020Z,66.40
2022-11-02T20:23:12.853Z,70.83
2022-11-02T20:26:21.140Z,59.55
2022-11-02T20:29:26.699Z,81.02
2022-11-02T20:32:32.455Z,84.62
2022-11-02T20:35:37.422Z,78.17
2022-11-02T20:38:44.008Z,114.97
2022-11-02T20:41:50.847Z,100.27
2022-11-02T20:44:56.525Z,121.17
2022-11-02T20:48:03.877Z,110.42
2022-11-02T20:51:10.524Z,104.03
2022-11-02T20:54:15.562Z,97.08
2022-11-02T20:57:21.718Z,89.67
2022-11-02T21:00:28.993Z,97.05
2022-11-02T21:03:35.155Z,85.57
2022-11-02T21:06:40.843Z,95.32
2022-11-02T21:09:47.134Z,75.30
2022-11-02T21:13:10.874Z,89.22
2022-11-02T21:16:17.963Z,95.75
2022-11-02T21:19:23.986Z,110.80
2022-11-02T21:22:29.713Z,120.17
2022-11-02T21:25:34.954Z,90.92
2022-11-02T21:28:45.633Z,94.03
2022-11-02T21:31:52.115Z,93.47
2022-11-02T21:34:57.160Z,88.58
2022-11-02T21:38:06.958Z,83.25
2022-11-02T21:41:19.221Z,81.17
2022-11-02T21:44:25.465Z,83.47
2022-11-02T21:47:32.373Z,95.50
2022-11-02T21:50:38.127Z,86.12
2022-11-02T21:53:44.544Z,84.30
2022-11-02T21:56:53.750Z,87.70
2022-11-02T22:00:00.247Z,83.00
2022-11-02T22:03:08.611Z,80.35
2022-11-02T22:06:14.105Z,72.53
2022-11-02T22:09:20.791Z,76.70
2022-11-02T22:12:44.234Z,81.92
2022-11-02T22:15:50.670Z,88.97
2022-11-02T22:18:56.243Z,74.62
2022-11-02T22:22:02.748Z,85.90
2022-11-02T22:25:09.427Z,89.13
2022-11-02T22:28:16.231Z,87.02
2022-11-02T22:31:23.970Z,91.20
2022-11-02T22:34:29.864Z,99.58
2022-11-02T22:37:53.375Z,98.90
2022-11-02T22:40:59.853Z,85.22
2022-11-02T22:44:09.763Z,97.57
2022-11-02T22:47:16.496Z,94.62
2022-11-02T22:50:26.716Z,97.88
2022-11-02T22:53:30.983Z,81.17
2022-11-02T22:56:38.662Z,100.72
2022-11-02T22:59:44.367Z,94.42
2022-11-02T23:02:50.458Z,91.53
2022-11-02T23:05:58.299Z,94.97
2022-11-02T23:09:05.413Z,87.95
2022-11-02T23:12:10.206Z,100.07
2022-11-02T23:15:16.145Z,88.95
2022-11-02T23:18:21.989Z,95.55
2022-11-02T23:21:28.367Z,96.47
2022-11-02T23:24:52.097Z,93.37
2022-11-02T23:28:26.986Z,106.55
2022-11-02T23:31:51.274Z,99.32
2022-11-02T23:35:14.949Z,108.35
2022-11-02T23:38:21.001Z,105.67
2022-11-02T23:41:26.541Z,124.33
2022-11-02T23:44:32.012Z,118.53
2022-11-02T23:47:55.697Z,136.97
2022-11-02T23:51:20.855Z,147.37
2022-11-02T23:54:43.693Z,154.90
2022-11-02T23:57:49.444Z,155.97
